Time;durP1;ratioP1;P1;durP2;ratioP2;P2;SDS_P1;SDS_P2;PMS_P1;PMS_P2;Temp;Humidity;BMP_temperature;BMP_pressure;BME280_temperature;BME280_humidity;BME280_pressure;Samples;Min_cycle;Max_cycle;Signal;HPM_P1;HPM_P2
2022/05/18 00:00:00;;;;;;;1999.90;999.90;;;17.40;99.90;;;;;;5029508;28;20459;-67
2022/05/18 00:02:27;;;;;;;1999.90;999.90;;;17.40;99.90;;;;;;5030407;28;20501;-67
2022/05/18 00:04:54;;;;;;;1999.90;999.90;;;17.40;99.90;;;;;;5030582;28;20463;-67
2022/05/18 00:07:22;;;;;;;1999.90;999.90;;;17.40;99.90;;;;;;5031573;28;20490;-70
2022/05/18 00:09:50;;;;;;;1999.90;999.90;;;17.40;99.90;;;;;;5029295;28;20459;-69
2022/05/18 00:12:18;;;;;;;1999.90;999.90;;;17.30;99.90;;;;;;5030802;28;20455;-67
2022/05/18 00:14:45;;;;;;;1999.90;999.90;;;17.30;99.90;;;;;;5020402;28;20979;-67
2022/05/18 00:17:11;;;;;;;1999.90;999.90;;;17.10;99.90;;;;;;5031433;28;20597;-69
2022/05/18 00:19:38;;;;;;;1999.90;999.90;;;16.90;99.90;;;;;;5021075;28;20899;-68
2022/05/18 00:22:05;;;;;;;1999.90;999.90;;;16.90;99.90;;;;;;5019931;28;20489;-68
2022/05/18 00:24:33;;;;;;;1999.90;999.90;;;16.90;99.90;;;;;;5019997;28;20451;-69
2022/05/18 00:27:03;;;;;;;1999.90;999.90;;;16.80;99.90;;;;;;5028213;28;20462;-70
2022/05/18 00:29:29;;;;;;;1999.90;999.90;;;16.80;99.90;;;;;;5020400;28;20974;-68
2022/05/18 00:31:56;;;;;;;1999.90;999.90;;;16.60;99.90;;;;;;5027265;28;20975;-67
2022/05/18 00:34:23;;;;;;;1999.90;999.90;;;16.60;99.90;;;;;;5020321;28;20484;-67
2022/05/18 00:36:49;;;;;;;1999.90;999.90;;;16.60;99.90;;;;;;5029260;28;20459;-70
2022/05/18 00:39:16;;;;;;;1999.90;999.90;;;16.60;99.90;;;;;;5022055;28;20464;-67
2022/05/18 00:41:44;;;;;;;1999.90;999.90;;;16.60;99.90;;;;;;5029358;28;20470;-68
2022/05/18 00:44:11;;;;;;;1999.90;999.90;;;16.60;99.90;;;;;;5024889;28;20510;-68
2022/05/18 00:46:38;;;;;;;1999.90;999.90;;;16.60;99.90;;;;;;5033404;28;20459;-67
2022/05/18 00:49:07;;;;;;;1999.90;999.90;;;16.70;99.90;;;;;;5029746;28;20483;-68
2022/05/18 00:51:38;;;;;;;1999.90;999.90;;;16.60;99.90;;;;;;5025369;28;20459;-68
2022/05/18 00:54:09;;;;;;;1999.90;999.90;;;16.60;99.90;;;;;;5033231;28;20509;-67
2022/05/18 00:56:40;;;;;;;1999.90;999.90;;;16.60;99.90;;;;;;5028099;28;20520;-68
2022/05/18 00:59:12;;;;;;;1999.90;999.90;;;16.40;99.90;;;;;;5041312;28;20494;-68
2022/05/18 01:01:39;;;;;;;1999.90;999.90;;;16.40;99.90;;;;;;5026144;28;21172;-67
2022/05/18 01:04:08;;;;;;;1999.90;999.90;;;16.30;99.90;;;;;;5033695;28;20532;-67
2022/05/18 01:06:41;;;;;;;1999.90;999.90;;;16.30;99.90;;;;;;5024958;28;20554;-67
2022/05/18 01:09:12;;;;;;;1999.90;999.90;;;16.10;99.90;;;;;;5034447;28;21036;-67
2022/05/18 01:11:40;;;;;;;1999.90;999.90;;;16.10;99.90;;;;;;5032652;28;20459;-68
2022/05/18 01:14:12;;;;;;;1999.90;999.90;;;15.90;99.90;;;;;;5034124;28;20485;-67
2022/05/18 01:16:39;;;;;;;1999.90;999.90;;;15.90;99.90;;;;;;5026730;28;20517;-68
2022/05/18 01:19:10;;;;;;;1999.90;999.90;;;15.90;99.90;;;;;;5029506;28;20471;-65
2022/05/18 01:21:45;;;;;;;1999.90;999.90;;;15.90;99.90;;;;;;5023930;28;20868;-67
2022/05/18 01:24:19;;;;;;;1999.90;999.90;;;15.90;99.90;;;;;;5033286;28;20461;-67
2022/05/18 01:26:48;;;;;;;1999.90;999.90;;;15.80;99.90;;;;;;5032100;28;20524;-67
2022/05/18 01:29:19;;;;;;;1999.90;999.90;;;15.90;99.90;;;;;;5032979;28;20443;-66
2022/05/18 01:31:50;;;;;;;1999.90;999.90;;;15.90;99.90;;;;;;5026728;28;20455;-67
2022/05/18 01:34:19;;;;;;;1999.90;999.90;;;15.80;99.90;;;;;;5033914;28;20482;-67
2022/05/18 01:36:46;;;;;;;1999.90;999.90;;;15.80;99.90;;;;;;5032752;28;21138;-66
2022/05/18 01:39:18;;;;;;;1999.90;999.90;;;15.80;99.90;;;;;;5025702;28;20509;-67
2022/05/18 01:41:54;;;;;;;1999.90;999.90;;;15.80;99.90;;;;;;5023947;28;21063;-67
2022/05/18 01:44:22;;;;;;;1999.90;999.90;;;15.80;99.90;;;;;;5033528;28;20447;-67
2022/05/18 01:46:49;;;;;;;1999.90;999.90;;;15.90;99.90;;;;;;5031262;28;20525;-68
2022/05/18 01:49:16;;;;;;;1999.90;999.90;;;15.80;99.90;;;;;;5033471;28;20574;-68
2022/05/18 01:51:45;;;;;;;1999.90;999.90;;;15.80;99.90;;;;;;5022813;28;21123;-67
2022/05/18 01:54:12;;;;;;;1999.90;999.90;;;15.70;99.90;;;;;;5024527;28;20493;-67
2022/05/18 01:56:39;;;;;;;1999.90;999.90;;;15.60;99.90;;;;;;5023493;28;20938;-67
2022/05/18 01:59:07;;;;;;;1999.90;999.90;;;15.70;99.90;;;;;;5031428;28;20478;-67
2022/05/18 02:01:34;;;;;;;1999.90;999.90;;;15.80;99.90;;;;;;5020292;28;20956;-65
2022/05/18 02:04:00;;;;;;;1999.90;999.90;;;15.70;99.90;;;;;;5032576;28;20517;-68
2022/05/18 02:06:29;;;;;;;1999.90;999.90;;;15.60;99.90;;;;;;5024066;28;20460;-67
2022/05/18 02:08:56;;;;;;;1999.90;999.90;;;15.50;99.90;;;;;;5024380;28;20479;-67
2022/05/18 02:11:23;;;;;;;1999.90;999.90;;;15.50;99.90;;;;;;5031505;28;20974;-68
2022/05/18 02:13:51;;;;;;;1999.90;999.90;;;15.60;99.90;;;;;;5031668;28;20475;-67
2022/05/18 02:16:19;;;;;;;1999.90;999.90;;;15.60;99.90;;;;;;5032990;28;20940;-67
2022/05/18 02:18:45;;;;;;;1999.90;999.90;;;15.60;99.90;;;;;;5026495;28;20507;-67
2022/05/18 02:21:13;;;;;;;1999.90;999.90;;;15.50;99.90;;;;;;5030125;28;20501;-68
2022/05/18 02:23:41;;;;;;;1999.90;999.90;;;15.50;99.90;;;;;;5030409;28;20489;-67
2022/05/18 02:26:09;;;;;;;1999.90;999.90;;;15.50;99.90;;;;;;5026680;28;20455;-68
2022/05/18 02:28:35;;;;;;;1999.90;999.90;;;15.40;99.90;;;;;;5022916;28;20483;-67
2022/05/18 02:31:02;;;;;;;1999.90;999.90;;;15.50;99.90;;;;;;5033214;28;20542;-67
2022/05/18 02:33:30;;;;;;;1999.90;999.90;;;15.50;99.90;;;;;;5030782;28;20517;-68
2022/05/18 02:35:57;;;;;;;1999.90;999.90;;;15.40;99.90;;;;;;5031902;28;20505;-67
2022/05/18 02:38:23;;;;;;;1999.90;999.90;;;15.30;99.90;;;;;;5022901;28;20471;-67
2022/05/18 02:40:50;;;;;;;1999.90;999.90;;;15.30;99.90;;;;;;5032695;28;20443;-67
2022/05/18 02:43:17;;;;;;;1999.90;999.90;;;15.30;99.90;;;;;;5021292;28;20455;-67
2022/05/18 02:45:44;;;;;;;1999.90;999.90;;;15.30;99.90;;;;;;5024761;28;20501;-67
2022/05/18 02:48:11;;;;;;;1999.90;999.90;;;15.30;99.90;;;;;;5021483;28;20546;-68
2022/05/18 02:50:39;;;;;;;1999.90;999.90;;;15.30;99.90;;;;;;5025172;28;20590;-68
2022/05/18 02:53:06;;;;;;;1999.90;999.90;;;15.30;99.90;;;;;;5021798;28;20950;-67
2022/05/18 02:58:16;;;;;;;1999.90;999.90;;;15.30;99.90;;;;;;5029919;28;20485;-67
2022/05/18 03:00:43;;;;;;;1999.90;999.90;;;15.20;99.90;;;;;;5032303;28;20455;-67
2022/05/18 03:03:10;;;;;;;1999.90;999.90;;;15.10;99.90;;;;;;5022848;28;20468;-66
2022/05/18 03:05:37;;;;;;;1999.90;999.90;;;15.10;99.90;;;;;;5030395;28;20798;-68
2022/05/18 03:08:06;;;;;;;1999.90;999.90;;;15.30;99.90;;;;;;5024126;28;20558;-67
2022/05/18 03:10:32;;;;;;;1999.90;999.90;;;15.40;99.90;;;;;;5029524;28;20512;-67
2022/05/18 03:12:59;;;;;;;1999.90;999.90;;;15.40;99.90;;;;;;5024507;28;20890;-67
2022/05/18 03:15:25;;;;;;;1999.90;999.90;;;15.50;99.90;;;;;;5036758;28;20514;-69
2022/05/18 03:17:53;;;;;;;1999.90;999.90;;;15.60;99.90;;;;;;5032290;28;20487;-67
2022/05/18 03:25:50;;;;;;;1999.90;999.90;;;15.60;99.90;;;;;;5029148;28;20532;-68
2022/05/18 03:28:17;;;;;;;1999.90;999.90;;;15.70;99.90;;;;;;5021572;28;20999;-68
2022/05/18 03:30:43;;;;;;;1999.90;999.90;;;15.80;99.90;;;;;;5030261;28;20471;-69
2022/05/18 03:33:10;;;;;;;1999.90;999.90;;;15.70;99.90;;;;;;5022246;28;20468;-68
2022/05/18 03:35:37;;;;;;;1999.90;999.90;;;15.70;99.90;;;;;;5024395;28;20512;-69
2022/05/18 03:38:05;;;;;;;1999.90;999.90;;;15.50;99.90;;;;;;5027487;28;20529;-68
2022/05/18 03:40:35;;;;;;;1999.90;999.90;;;15.60;99.90;;;;;;5030989;28;20463;-67
2022/05/18 03:43:01;;;;;;;1999.90;999.90;;;15.50;99.90;;;;;;5031379;28;20443;-68
2022/05/18 03:45:28;;;;;;;1999.90;999.90;;;15.50;99.90;;;;;;5030521;28;20947;-68
2022/05/18 03:47:55;;;;;;;1999.90;999.90;;;15.50;99.90;;;;;;5030875;28;20545;-68
2022/05/18 03:50:22;;;;;;;1999.90;999.90;;;15.50;99.90;;;;;;5022662;28;20459;-68
2022/05/18 03:52:48;;;;;;;1999.90;999.90;;;15.40;99.90;;;;;;5024895;28;20467;-68
2022/05/18 03:55:15;;;;;;;1999.90;999.90;;;15.40;99.90;;;;;;5027099;28;20479;-68
2022/05/18 03:57:43;;;;;;;1999.90;999.90;;;15.40;99.90;;;;;;5031509;28;20478;-68
2022/05/18 04:00:11;;;;;;;1999.90;999.90;;;15.50;99.90;;;;;;5028972;28;20459;-68
2022/05/18 04:02:40;;;;;;;1999.90;999.90;;;15.50;99.90;;;;;;5031490;28;20439;-68
2022/05/18 04:05:07;;;;;;;1999.90;999.90;;;15.50;99.90;;;;;;5029501;28;20459;-68
2022/05/18 04:07:34;;;;;;;1999.90;999.90;;;15.50;99.90;;;;;;5030898;28;20475;-67
2022/05/18 04:10:01;;;;;;;1999.90;999.90;;;15.50;99.90;;;;;;5029976;28;20464;-67
2022/05/18 04:12:28;;;;;;;1999.90;999.90;;;15.50;99.90;;;;;;5031111;28;20447;-67
2022/05/18 04:14:56;;;;;;;1999.90;999.90;;;15.50;99.90;;;;;;5029587;28;22447;-67
2022/05/18 04:17:23;;;;;;;1999.90;999.90;;;15.70;99.90;;;;;;5033667;28;20463;-68
2022/05/18 04:19:49;;;;;;;1999.90;999.90;;;15.70;99.90;;;;;;5033696;28;20948;-67
2022/05/18 04:22:16;;;;;;;1999.90;999.90;;;15.70;99.90;;;;;;5034965;28;20455;-68
2022/05/18 04:24:43;;;;;;;1999.90;999.90;;;15.70;99.90;;;;;;5035471;28;20451;-67
2022/05/18 04:27:10;;;;;;;1999.90;999.90;;;15.80;99.90;;;;;;5024663;28;20558;-68
2022/05/18 04:29:37;;;;;;;1999.90;999.90;;;15.90;99.90;;;;;;5022917;28;20470;-67
2022/05/18 04:32:06;;;;;;;1999.90;999.90;;;16.00;99.90;;;;;;5030071;28;20463;-66
2022/05/18 04:34:33;;;;;;;1999.90;999.90;;;16.00;99.90;;;;;;5030895;28;20534;-68
2022/05/18 04:37:00;;;;;;;1999.90;999.90;;;16.00;99.90;;;;;;5033569;28;20515;-68
2022/05/18 04:39:27;;;;;;;1999.90;999.90;;;16.20;99.90;;;;;;5031947;28;20462;-68
2022/05/18 04:41:53;;;;;;;1999.90;999.90;;;16.30;99.90;;;;;;5020375;28;20471;-72
2022/05/18 04:44:20;;;;;;;1999.90;999.90;;;16.40;99.90;;;;;;5030464;28;20467;-68
2022/05/18 04:46:47;;;;;;;1999.90;999.90;;;16.50;99.90;;;;;;5036336;28;20482;-67
2022/05/18 04:49:15;;;;;;;1999.90;999.90;;;16.60;99.90;;;;;;5046437;28;20467;-68
2022/05/18 04:51:41;;;;;;;1999.90;999.90;;;16.70;99.90;;;;;;5046946;28;20517;-66
2022/05/18 04:54:08;;;;;;;1999.90;999.90;;;16.80;99.90;;;;;;5046583;28;20471;-68
2022/05/18 04:56:34;;;;;;;1999.90;999.90;;;17.00;99.90;;;;;;5042110;28;20912;-67
2022/05/18 04:59:01;;;;;;;1999.90;999.90;;;17.20;99.90;;;;;;5028224;28;20517;-69
2022/05/18 05:01:30;;;;;;;1999.90;999.90;;;17.50;99.90;;;;;;5033956;28;20466;-68
2022/05/18 05:03:56;;;;;;;1999.90;999.90;;;17.60;99.90;;;;;;5034194;28;20939;-69
2022/05/18 05:06:24;;;;;;;1999.90;999.90;;;17.70;99.90;;;;;;5032671;28;20882;-69
2022/05/18 05:08:52;;;;;;;1999.90;999.90;;;17.70;99.90;;;;;;5028334;28;20463;-70
2022/05/18 05:11:19;;;;;;;1999.90;999.90;;;17.70;99.90;;;;;;5024565;28;20463;-67
2022/05/18 05:13:46;;;;;;;1999.90;999.90;;;17.70;99.90;;;;;;5033812;28;20865;-68
2022/05/18 05:16:13;;;;;;;1999.90;999.90;;;17.70;99.90;;;;;;5025221;28;20483;-66
2022/05/18 05:18:40;;;;;;;1999.90;999.90;;;17.70;99.90;;;;;;5032166;28;20513;-67
2022/05/18 05:21:07;;;;;;;1999.90;999.90;;;17.80;99.90;;;;;;5029842;28;20470;-70
2022/05/18 05:23:35;;;;;;;1999.90;999.90;;;18.00;99.90;;;;;;5033735;28;20451;-68
2022/05/18 05:26:02;;;;;;;1999.90;999.90;;;18.10;99.90;;;;;;5032585;28;20516;-68
2022/05/18 05:28:29;;;;;;;1999.90;999.90;;;18.20;99.90;;;;;;5031426;28;20578;-69
2022/05/18 05:30:55;;;;;;;1999.90;999.90;;;18.30;99.90;;;;;;5026824;28;20959;-69
2022/05/18 05:33:22;;;;;;;1999.90;999.90;;;18.40;99.90;;;;;;5030735;28;20888;-67
2022/05/18 05:35:49;;;;;;;1999.90;999.90;;;18.50;99.90;;;;;;5033978;28;20602;-67
2022/05/18 05:38:15;;;;;;;1999.90;999.90;;;18.50;99.90;;;;;;5032810;28;20475;-67
2022/05/18 05:40:43;;;;;;;1999.90;999.90;;;18.60;99.90;;;;;;5028554;28;20518;-69
2022/05/18 05:43:12;;;;;;;1999.90;999.90;;;18.70;99.90;;;;;;5031676;28;20466;-68
2022/05/18 05:45:39;;;;;;;1999.90;999.90;;;18.70;99.90;;;;;;5028263;28;20486;-67
2022/05/18 05:48:08;;;;;;;1999.90;999.90;;;18.80;99.90;;;;;;5029371;28;20479;-70
2022/05/18 05:50:34;;;;;;;1999.90;999.90;;;18.80;99.90;;;;;;5029830;28;20546;-68
2022/05/18 05:53:02;;;;;;;1999.90;999.90;;;18.70;99.90;;;;;;5026047;28;20505;-67
2022/05/18 05:55:29;;;;;;;1999.90;999.90;;;18.90;99.90;;;;;;5021818;28;20483;-69
2022/05/18 05:57:57;;;;;;;1999.90;999.90;;;18.80;99.90;;;;;;5025649;28;20491;-68
2022/05/18 06:00:24;;;;;;;1999.90;999.90;;;18.90;99.90;;;;;;5024050;28;21226;-68
2022/05/18 06:02:51;;;;;;;1999.90;999.90;;;19.00;99.90;;;;;;5029495;28;20463;-67
2022/05/18 06:05:18;;;;;;;1999.90;999.90;;;18.90;99.90;;;;;;5030944;28;20463;-67
2022/05/18 06:07:46;;;;;;;1999.90;999.90;;;18.90;99.90;;;;;;5022409;28;20544;-67
2022/05/18 06:10:13;;;;;;;1999.90;999.90;;;19.10;99.90;;;;;;5033283;28;20870;-67
2022/05/18 06:12:40;;;;;;;1999.90;999.90;;;19.20;99.90;;;;;;5022120;28;20521;-68
2022/05/18 06:15:09;;;;;;;1999.90;999.90;;;19.20;99.90;;;;;;5025261;28;20545;-69
2022/05/18 06:17:36;;;;;;;1999.90;999.90;;;19.60;99.90;;;;;;5020008;28;20509;-70
2022/05/18 06:20:03;;;;;;;1999.90;999.90;;;20.00;99.90;;;;;;5028544;28;20460;-69
2022/05/18 06:22:30;;;;;;;1999.90;999.90;;;20.20;99.90;;;;;;5030006;28;20464;-69
2022/05/18 06:24:56;;;;;;;1999.90;999.90;;;20.50;99.90;;;;;;5032055;28;20463;-69
2022/05/18 06:27:23;;;;;;;1999.90;999.90;;;20.50;99.90;;;;;;5023792;28;20903;-70
2022/05/18 06:29:50;;;;;;;1999.90;999.90;;;20.50;99.90;;;;;;5030295;28;20463;-69
2022/05/18 06:32:18;;;;;;;1999.90;999.90;;;20.80;99.90;;;;;;5028781;28;21133;-68
2022/05/18 06:34:45;;;;;;;1999.90;999.90;;;21.00;99.90;;;;;;5022710;28;20494;-69
2022/05/18 06:37:12;;;;;;;1999.90;999.90;;;20.90;99.90;;;;;;5029493;28;20532;-69
2022/05/18 06:39:39;;;;;;;1999.90;999.90;;;20.90;99.90;;;;;;5031039;28;20455;-69
2022/05/18 06:42:06;;;;;;;1999.90;999.90;;;21.00;99.90;;;;;;5025545;28;22316;-69
2022/05/18 06:44:34;;;;;;;1999.90;999.90;;;21.20;99.90;;;;;;5024875;28;20525;-69
2022/05/18 06:47:01;;;;;;;1999.90;999.90;;;21.40;99.90;;;;;;5029739;28;20459;-69
2022/05/18 06:49:29;;;;;;;1999.90;999.90;;;21.60;99.90;;;;;;5031298;28;21020;-69
2022/05/18 06:51:57;;;;;;;1999.90;999.90;;;21.60;99.90;;;;;;5029918;28;20470;-67
2022/05/18 06:54:23;;;;;;;1999.90;999.90;;;21.70;99.90;;;;;;5031058;28;21003;-69
2022/05/18 06:56:51;;;;;;;1999.90;999.90;;;21.50;99.90;;;;;;5032025;28;20851;-69
2022/05/18 06:59:19;;;;;;;1999.90;999.90;;;21.60;99.90;;;;;;5026375;28;20475;-69
2022/05/18 07:01:46;;;;;;;1999.90;999.90;;;21.70;99.90;;;;;;5023402;28;20486;-69
2022/05/18 07:04:13;;;;;;;1999.90;999.90;;;22.00;99.90;;;;;;5031168;28;20513;-70
2022/05/18 07:06:43;;;;;;;1999.90;999.90;;;22.10;99.90;;;;;;5030063;28;20979;-69
2022/05/18 07:09:12;;;;;;;1999.90;999.90;;;22.30;99.90;;;;;;5029203;28;20557;-69
2022/05/18 07:11:39;;;;;;;1999.90;999.90;;;22.50;99.90;;;;;;5024321;28;20463;-66
2022/05/18 07:14:06;;;;;;;1999.90;999.90;;;22.40;99.90;;;;;;5027454;28;20509;-66
2022/05/18 07:16:34;;;;;;;1999.90;999.90;;;22.40;99.90;;;;;;5031628;28;20487;-68
2022/05/18 07:19:01;;;;;;;1999.90;999.90;;;22.30;99.90;;;;;;5029930;28;20487;-69
2022/05/18 07:21:29;;;;;;;1999.90;999.90;;;22.10;99.90;;;;;;5029470;28;20837;-69
2022/05/18 07:23:57;;;;;;;1999.90;999.90;;;22.10;99.90;;;;;;5028973;28;20509;-67
2022/05/18 07:26:25;;;;;;;1999.90;999.90;;;22.30;99.90;;;;;;5030269;28;20974;-66
2022/05/18 07:28:52;;;;;;;1999.90;999.90;;;22.50;99.90;;;;;;5027901;28;21041;-67
2022/05/18 07:31:19;;;;;;;1999.90;999.90;;;22.90;99.90;;;;;;5032032;28;20450;-67
2022/05/18 07:33:47;;;;;;;1999.90;999.90;;;23.20;99.90;;;;;;5031778;28;20451;-67
2022/05/18 07:36:13;;;;;;;1999.90;999.90;;;23.20;99.90;;;;;;5028085;28;20483;-67
2022/05/18 07:38:40;;;;;;;1999.90;999.90;;;23.50;99.90;;;;;;5022968;28;20490;-67
2022/05/18 07:41:10;;;;;;;1999.90;999.90;;;23.60;99.90;;;;;;5030307;28;20844;-67
2022/05/18 07:43:37;;;;;;;1999.90;999.90;;;23.90;99.90;;;;;;5031505;28;20444;-67
2022/05/18 07:46:05;;;;;;;1999.90;999.90;;;24.10;99.90;;;;;;5027820;28;20463;-67
2022/05/18 07:48:32;;;;;;;1999.90;999.90;;;24.00;99.90;;;;;;5030790;28;20533;-67
2022/05/18 07:50:59;;;;;;;1999.90;999.90;;;24.10;99.90;;;;;;5031413;28;20497;-67
2022/05/18 07:53:26;;;;;;;1999.90;999.90;;;24.20;99.90;;;;;;5031516;28;20455;-66
2022/05/18 07:55:53;;;;;;;1999.90;999.90;;;24.50;99.90;;;;;;5031877;28;20475;-65
2022/05/18 07:58:22;;;;;;;1999.90;999.90;;;24.60;99.90;;;;;;5030401;28;20537;-65
2022/05/18 08:00:49;;;;;;;1999.90;999.90;;;24.60;99.90;;;;;;5031678;28;20448;-65
2022/05/18 08:03:16;;;;;;;1999.90;999.90;;;24.60;99.90;;;;;;5031192;28;20932;-65
2022/05/18 08:05:45;;;;;;;1999.90;999.90;;;24.90;99.90;;;;;;5031526;28;20873;-65
2022/05/18 08:08:14;;;;;;;1999.90;999.90;;;24.90;99.90;;;;;;5031421;28;20893;-66
2022/05/18 08:16:13;;;;;;;1999.90;999.90;;;25.40;99.10;;;;;;5026886;28;20587;-65
2022/05/18 08:18:40;;;;;;;1999.90;999.90;;;25.30;98.90;;;;;;5031359;28;20471;-65
2022/05/18 08:21:07;;;;;;;1999.90;999.90;;;25.40;99.20;;;;;;5029947;28;20490;-67
2022/05/18 08:23:34;;;;;;;1999.90;999.90;;;25.30;99.70;;;;;;5031235;28;20439;-68
2022/05/18 08:26:01;;;;;;;1999.90;999.90;;;25.20;99.90;;;;;;5031380;28;20443;-68
2022/05/18 08:28:29;;;;;;;1999.90;999.90;;;25.30;99.90;;;;;;5031445;28;20614;-68
2022/05/18 08:30:56;;;;;;;1999.90;999.90;;;25.60;97.80;;;;;;5030529;28;20506;-68
2022/05/18 08:33:23;;;;;;;1999.90;999.90;;;25.90;96.90;;;;;;5030720;28;20955;-67
2022/05/18 08:35:50;;;;;;;1999.90;999.90;;;26.10;96.00;;;;;;5031413;28;20474;-68
2022/05/18 08:38:19;;;;;;;1999.90;999.90;;;26.30;97.10;;;;;;5031404;28;20471;-68
2022/05/18 08:40:49;;;;;;;1999.90;999.90;;;26.50;95.60;;;;;;5030732;28;20951;-68
2022/05/18 08:43:24;;;;;;;1999.90;999.90;;;26.70;95.00;;;;;;5031342;28;20501;-68
2022/05/18 08:46:02;;;;;;;1999.90;999.90;;;26.70;94.60;;;;;;5031147;28;20435;-67
2022/05/18 08:48:41;;;;;;;1999.90;999.90;;;26.50;93.60;;;;;;5031335;28;20470;-69
2022/05/18 08:51:21;;;;;;;1999.90;999.90;;;26.50;94.60;;;;;;5031132;28;20533;-68
2022/05/18 08:53:55;;;;;;;1999.90;999.90;;;26.40;94.50;;;;;;5031188;28;20489;-68
2022/05/18 08:56:26;;;;;;;1999.90;999.90;;;26.70;94.50;;;;;;5028751;28;20494;-68
2022/05/18 08:58:54;;;;;;;1999.90;999.90;;;26.70;93.70;;;;;;5030629;28;20525;-68
2022/05/18 09:01:27;;;;;;;1999.90;999.90;;;26.60;93.60;;;;;;5030767;28;20863;-68
2022/05/18 09:03:58;;;;;;;1999.90;999.90;;;26.60;93.80;;;;;;5024746;28;20562;-68
2022/05/18 09:06:30;;;;;;;1999.90;999.90;;;26.80;93.40;;;;;;5033535;28;20489;-68
2022/05/18 09:11:49;;;;;;;1999.90;999.90;;;26.70;93.70;;;;;;5034124;28;20430;-68
2022/05/18 09:14:19;;;;;;;1999.90;999.90;;;26.90;93.60;;;;;;5032807;28;20558;-68
2022/05/18 09:16:59;;;;;;;1999.90;999.90;;;27.10;93.90;;;;;;5034361;28;20474;-66
2022/05/18 09:19:37;;;;;;;1999.90;999.90;;;27.50;92.80;;;;;;5033149;28;20477;-68
2022/05/18 09:22:17;;;;;;;1999.90;999.90;;;28.00;92.10;;;;;;5025466;28;20475;-68
2022/05/18 09:24:55;;;;;;;1999.90;999.90;;;28.00;91.80;;;;;;5032511;28;20498;-68
2022/05/18 09:27:39;;;;;;;1999.90;999.90;;;27.80;92.50;;;;;;5033202;28;20478;-68
2022/05/18 09:30:15;;;;;;;1999.90;999.90;;;27.80;91.60;;;;;;5032996;28;20463;-66
2022/05/18 09:33:01;;;;;;;1999.90;999.90;;;27.60;92.10;;;;;;5029928;28;20459;-69
2022/05/18 09:35:43;;;;;;;1999.90;999.90;;;27.50;92.10;;;;;;5031558;28;20467;-68
2022/05/18 09:38:17;;;;;;;1999.90;999.90;;;27.90;92.20;;;;;;5029679;28;20479;-67
2022/05/18 09:40:46;;;;;;;1999.90;999.90;;;28.00;91.10;;;;;;5034243;28;20512;-65
2022/05/18 09:43:17;;;;;;;1999.90;999.90;;;28.50;90.60;;;;;;5027958;28;20513;-68
2022/05/18 09:45:47;;;;;;;1999.90;999.90;;;28.20;90.40;;;;;;5023496;28;20467;-66
2022/05/18 09:48:20;;;;;;;1999.90;999.90;;;27.90;91.20;;;;;;5031943;28;20467;-66
2022/05/18 09:50:49;;;;;;;1999.90;999.90;;;28.00;91.20;;;;;;5014163;28;20435;-68
2022/05/18 09:53:17;;;;;;;1999.90;999.90;;;27.90;91.50;;;;;;5013254;28;20463;-68
2022/05/18 09:55:46;;;;;;;1999.90;999.90;;;27.50;91.30;;;;;;5032450;28;20877;-68
2022/05/18 09:58:18;;;;;;;1999.90;999.90;;;27.60;92.20;;;;;;5030593;28;20487;-68
2022/05/18 10:00:45;;;;;;;1999.90;999.90;;;27.60;92.90;;;;;;5031421;28;20447;-68
2022/05/18 10:08:52;;;;;;;1999.90;999.90;;;27.70;91.70;;;;;;5012538;28;20494;-68
2022/05/18 10:11:21;;;;;;;1999.90;999.90;;;28.00;91.80;;;;;;5033374;28;20542;-68
2022/05/18 10:13:59;;;;;;;1999.90;999.90;;;28.10;91.30;;;;;;5028188;28;20460;-69
2022/05/18 10:16:37;;;;;;;1999.90;999.90;;;28.00;91.60;;;;;;5032262;28;20529;-68
2022/05/18 10:19:06;;;;;;;1999.90;999.90;;;27.90;91.00;;;;;;5016512;28;20521;-68
2022/05/18 10:21:40;;;;;;;1999.90;999.90;;;27.90;90.90;;;;;;5033098;28;20491;-66
2022/05/18 10:24:23;;;;;;;1999.90;999.90;;;28.00;90.80;;;;;;5029637;28;20462;-66
2022/05/18 10:27:06;;;;;;;1999.90;999.90;;;28.30;90.90;;;;;;5030755;28;20867;-66
2022/05/18 10:29:33;;;;;;;1999.90;999.90;;;28.30;90.20;;;;;;5032942;28;20451;-66
2022/05/18 10:32:07;;;;;;;1999.90;999.90;;;27.70;91.00;;;;;;5032845;28;20862;-66
2022/05/18 10:34:43;;;;;;;1999.90;999.90;;;27.90;91.20;;;;;;5028203;28;20530;-67
2022/05/18 10:37:12;;;;;;;1999.90;999.90;;;28.20;90.90;;;;;;5028524;28;20532;-67
2022/05/18 10:39:41;;;;;;;1999.90;999.90;;;28.30;91.30;;;;;;5030313;28;20467;-66
2022/05/18 10:42:20;;;;;;;1999.90;999.90;;;28.40;90.20;;;;;;5032696;28;20452;-66
2022/05/18 10:44:47;;;;;;;1999.90;999.90;;;28.90;90.00;;;;;;5013198;28;20456;-67
2022/05/18 10:47:26;;;;;;;1999.90;999.90;;;28.70;89.20;;;;;;5013186;28;20476;-66
2022/05/18 10:50:11;;;;;;;1999.90;999.90;;;28.60;89.20;;;;;;5022371;28;20464;-66
2022/05/18 10:52:37;;;;;;;1999.90;999.90;;;28.50;90.00;;;;;;5031589;28;20459;-67
2022/05/18 10:55:11;;;;;;;1999.90;999.90;;;28.90;90.30;;;;;;5030223;28;20463;-66
2022/05/18 10:57:39;;;;;;;1999.90;999.90;;;28.60;88.30;;;;;;5045678;23;20489;-67
2022/05/18 11:00:10;;;;;;;1999.90;999.90;;;28.60;89.60;;;;;;5025315;28;20959;-69
2022/05/18 11:02:46;;;;;;;1999.90;999.90;;;28.00;90.40;;;;;;5024111;28;20547;-68
2022/05/18 11:05:26;;;;;;;1999.90;999.90;;;28.00;90.90;;;;;;5024002;28;20512;-68
2022/05/18 11:07:52;;;;;;;1999.90;999.90;;;28.20;90.10;;;;;;5028951;28;20526;-69
2022/05/18 11:10:19;;;;;;;1999.90;999.90;;;28.40;90.50;;;;;;5026506;28;20599;-68
2022/05/18 11:12:51;;;;;;;1999.90;999.90;;;28.30;90.80;;;;;;5028568;28;20486;-69
2022/05/18 11:15:27;;;;;;;1999.90;999.90;;;28.70;91.30;;;;;;5028757;28;20866;-69
2022/05/18 11:18:04;;;;;;;1999.90;999.90;;;29.20;91.00;;;;;;5029692;28;20558;-69
2022/05/18 11:20:42;;;;;;;1999.90;999.90;;;29.30;89.30;;;;;;5025487;28;20491;-69
2022/05/18 11:23:21;;;;;;;1999.90;999.90;;;29.30;90.50;;;;;;5027881;28;20534;-69
2022/05/18 11:25:57;;;;;;;1999.90;999.90;;;29.30;90.30;;;;;;5022186;28;20462;-68
2022/05/18 11:28:30;;;;;;;1999.90;999.90;;;29.10;88.00;;;;;;5022915;28;20905;-67
2022/05/18 11:31:13;;;;;;;1999.90;999.90;;;28.80;89.10;;;;;;5029731;28;20463;-69
2022/05/18 11:33:47;;;;;;;1999.90;999.90;;;28.90;89.80;;;;;;5031207;28;20446;-69
2022/05/18 11:36:26;;;;;;;1999.90;999.90;;;29.20;89.90;;;;;;5032345;28;20446;-69
2022/05/18 11:39:06;;;;;;;1999.90;999.90;;;29.30;89.00;;;;;;5032293;28;20470;-69
2022/05/18 11:41:48;;;;;;;1999.90;999.90;;;29.20;88.10;;;;;;5032221;28;20856;-66
2022/05/18 11:44:22;;;;;;;1999.90;999.90;;;29.30;89.10;;;;;;5032549;28;20439;-69
2022/05/18 11:47:08;;;;;;;1999.90;999.90;;;29.60;87.00;;;;;;5032456;28;20443;-68
2022/05/18 11:49:43;;;;;;;1999.90;999.90;;;28.70;88.60;;;;;;5032525;28;20494;-70
2022/05/18 11:52:38;;;;;;;1999.90;999.90;;;29.00;90.00;;;;;;5027530;28;20466;-68
2022/05/18 11:55:21;;;;;;;1999.90;999.90;;;29.10;88.70;;;;;;5028372;28;20459;-69
2022/05/18 11:57:57;;;;;;;1999.90;999.90;;;28.30;90.00;;;;;;5029450;28;20574;-69
2022/05/18 12:00:46;;;;;;;1999.90;999.90;;;28.50;90.70;;;;;;5031076;28;20470;-69
2022/05/18 12:03:43;;;;;;;1999.90;999.90;;;28.50;90.50;;;;;;5028986;28;20506;-69
2022/05/18 12:06:28;;;;;;;1999.90;999.90;;;28.50;91.10;;;;;;5030703;28;20463;-70
2022/05/18 12:09:08;;;;;;;1999.90;999.90;;;28.40;90.00;;;;;;5027406;28;20860;-68
2022/05/18 12:11:42;;;;;;;1999.90;999.90;;;28.40;90.50;;;;;;5028767;28;20466;-68
2022/05/18 12:14:17;;;;;;;1999.90;999.90;;;28.50;91.10;;;;;;5032038;28;20505;-70
2022/05/18 12:16:52;;;;;;;1999.90;999.90;;;28.30;91.50;;;;;;5032003;28;20481;-69
2022/05/18 12:19:23;;;;;;;1999.90;999.90;;;28.50;92.50;;;;;;5030790;28;20466;-68
2022/05/18 12:21:53;;;;;;;1999.90;999.90;;;28.60;92.60;;;;;;5029929;28;20463;-68
2022/05/18 12:24:21;;;;;;;1999.90;999.90;;;28.60;91.40;;;;;;5028823;28;20959;-69
2022/05/18 12:26:48;;;;;;;1999.90;999.90;;;28.50;91.40;;;;;;5028959;28;20537;-69
2022/05/18 12:29:20;;;;;;;1999.90;999.90;;;28.20;90.70;;;;;;5028045;28;20475;-70
2022/05/18 12:31:48;;;;;;;1999.90;999.90;;;27.60;91.80;;;;;;5027112;28;20447;-69